sensor_id;sensor_type;location;lat;lon;timestamp;P1;durP1;ratioP1;P2;durP2;ratioP2
30743;SDS011;17486;46.738;7.622;2023-03-05T00:01:12;44.13;;;27.52;;
30743;SDS011;17486;46.738;7.622;2023-03-05T00:03:42;42.65;;;26.35;;
30743;SDS011;17486;46.738;7.622;2023-03-05T00:06:08;40.22;;;26.02;;
30743;SDS011;17486;46.738;7.622;2023-03-05T00:08:34;43.95;;;25.73;;
30743;SDS011;17486;46.738;7.622;2023-03-05T00:11:02;41.70;;;24.70;;
30743;SDS011;17486;46.738;7.622;2023-03-05T00:13:32;36.83;;;24.55;;
30743;SDS011;17486;46.738;7.622;2023-03-05T00:15:57;41.45;;;27.63;;
30743;SDS011;17486;46.738;7.622;2023-03-05T00:18:23;43.78;;;28.15;;
30743;SDS011;17486;46.738;7.622;2023-03-05T00:20:49;47.58;;;29.63;;
30743;SDS011;17486;46.738;7.622;2023-03-05T00:23:15;48.55;;;29.67;;
30743;SDS011;17486;46.738;7.622;2023-03-05T00:25:41;43.65;;;27.63;;
30743;SDS011;17486;46.738;7.622;2023-03-05T00:28:10;47.03;;;27.98;;
30743;SDS011;17486;46.738;7.622;2023-03-05T00:30:36;43.50;;;27.13;;
30743;SDS011;17486;46.738;7.622;2023-03-05T00:33:01;44.58;;;28.30;;
30743;SDS011;17486;46.738;7.622;2023-03-05T00:35:27;46.58;;;28.08;;
30743;SDS011;17486;46.738;7.622;2023-03-05T00:37:53;43.45;;;27.30;;
30743;SDS011;17486;46.738;7.622;2023-03-05T00:40:19;43.35;;;27.38;;
30743;SDS011;17486;46.738;7.622;2023-03-05T00:42:44;45.60;;;28.55;;
30743;SDS011;17486;46.738;7.622;2023-03-05T00:45:10;46.72;;;28.42;;
30743;SDS011;17486;46.738;7.622;2023-03-05T00:47:36;45.15;;;26.90;;
30743;SDS011;17486;46.738;7.622;2023-03-05T00:50:03;47.75;;;28.80;;
30743;SDS011;17486;46.738;7.622;2023-03-05T00:52:30;48.72;;;29.02;;
30743;SDS011;17486;46.738;7.622;2023-03-05T00:54:55;51.45;;;30.52;;
30743;SDS011;17486;46.738;7.622;2023-03-05T00:57:21;44.42;;;27.00;;
30743;SDS011;17486;46.738;7.622;2023-03-05T00:59:47;43.05;;;28.75;;
30743;SDS011;17486;46.738;7.622;2023-03-05T01:02:13;46.03;;;28.75;;
30743;SDS011;17486;46.738;7.622;2023-03-05T01:04:38;45.88;;;29.13;;
30743;SDS011;17486;46.738;7.622;2023-03-05T01:07:04;40.08;;;26.83;;
30743;SDS011;17486;46.738;7.622;2023-03-05T01:09:29;46.22;;;27.10;;
30743;SDS011;17486;46.738;7.622;2023-03-05T01:11:56;44.70;;;26.75;;
30743;SDS011;17486;46.738;7.622;2023-03-05T01:14:21;41.83;;;26.45;;
30743;SDS011;17486;46.738;7.622;2023-03-05T01:16:48;49.47;;;26.92;;
30743;SDS011;17486;46.738;7.622;2023-03-05T01:19:14;46.63;;;28.05;;
30743;SDS011;17486;46.738;7.622;2023-03-05T01:21:40;45.42;;;27.30;;
30743;SDS011;17486;46.738;7.622;2023-03-05T01:24:06;43.47;;;28.05;;
30743;SDS011;17486;46.738;7.622;2023-03-05T01:26:32;45.00;;;26.88;;
30743;SDS011;17486;46.738;7.622;2023-03-05T01:28:59;44.70;;;29.42;;
30743;SDS011;17486;46.738;7.622;2023-03-05T01:31:24;45.15;;;27.40;;
30743;SDS011;17486;46.738;7.622;2023-03-05T01:33:51;48.05;;;28.20;;
30743;SDS011;17486;46.738;7.622;2023-03-05T01:36:17;46.40;;;26.88;;
30743;SDS011;17486;46.738;7.622;2023-03-05T01:38:44;45.67;;;27.98;;
30743;SDS011;17486;46.738;7.622;2023-03-05T01:41:12;40.28;;;26.20;;
30743;SDS011;17486;46.738;7.622;2023-03-05T01:43:39;44.20;;;26.80;;
30743;SDS011;17486;46.738;7.622;2023-03-05T01:48:40;41.25;;;26.65;;
30743;SDS011;17486;46.738;7.622;2023-03-05T01:51:10;44.33;;;26.90;;
30743;SDS011;17486;46.738;7.622;2023-03-05T01:53:37;40.40;;;26.98;;
30743;SDS011;17486;46.738;7.622;2023-03-05T01:56:03;46.08;;;26.50;;
30743;SDS011;17486;46.738;7.622;2023-03-05T01:58:29;42.35;;;25.90;;
30743;SDS011;17486;46.738;7.622;2023-03-05T02:00:54;46.63;;;27.77;;
30743;SDS011;17486;46.738;7.622;2023-03-05T02:03:21;46.50;;;27.35;;
30743;SDS011;17486;46.738;7.622;2023-03-05T02:05:47;44.33;;;27.50;;
30743;SDS011;17486;46.738;7.622;2023-03-05T02:08:14;45.10;;;26.70;;
30743;SDS011;17486;46.738;7.622;2023-03-05T02:10:49;43.83;;;26.98;;
30743;SDS011;17486;46.738;7.622;2023-03-05T02:13:21;47.80;;;27.95;;
30743;SDS011;17486;46.738;7.622;2023-03-05T02:15:50;44.88;;;27.73;;
30743;SDS011;17486;46.738;7.622;2023-03-05T02:18:18;44.40;;;27.33;;
30743;SDS011;17486;46.738;7.622;2023-03-05T02:20:49;42.53;;;26.88;;
30743;SDS011;17486;46.738;7.622;2023-03-05T02:23:27;47.97;;;28.10;;
30743;SDS011;17486;46.738;7.622;2023-03-05T02:25:54;45.47;;;27.85;;
30743;SDS011;17486;46.738;7.622;2023-03-05T02:28:25;45.70;;;27.40;;
30743;SDS011;17486;46.738;7.622;2023-03-05T02:30:53;44.40;;;26.55;;
30743;SDS011;17486;46.738;7.622;2023-03-05T02:33:19;44.95;;;26.83;;
30743;SDS011;17486;46.738;7.622;2023-03-05T02:35:45;44.42;;;27.02;;
30743;SDS011;17486;46.738;7.622;2023-03-05T02:38:11;43.78;;;27.55;;
30743;SDS011;17486;46.738;7.622;2023-03-05T02:40:38;43.05;;;26.65;;
30743;SDS011;17486;46.738;7.622;2023-03-05T02:43:05;45.83;;;26.48;;
30743;SDS011;17486;46.738;7.622;2023-03-05T02:45:30;43.50;;;26.45;;
30743;SDS011;17486;46.738;7.622;2023-03-05T02:47:56;46.15;;;27.27;;
30743;SDS011;17486;46.738;7.622;2023-03-05T02:50:22;49.47;;;27.75;;
30743;SDS011;17486;46.738;7.622;2023-03-05T02:52:48;49.58;;;28.67;;
30743;SDS011;17486;46.738;7.622;2023-03-05T02:55:14;45.58;;;26.80;;
30743;SDS011;17486;46.738;7.622;2023-03-05T02:57:40;46.47;;;27.05;;
30743;SDS011;17486;46.738;7.622;2023-03-05T03:00:05;44.88;;;27.73;;
30743;SDS011;17486;46.738;7.622;2023-03-05T03:02:32;43.00;;;27.08;;
30743;SDS011;17486;46.738;7.622;2023-03-05T03:04:57;47.78;;;27.73;;
30743;SDS011;17486;46.738;7.622;2023-03-05T03:07:23;50.15;;;28.92;;
30743;SDS011;17486;46.738;7.622;2023-03-05T03:09:48;43.58;;;27.05;;
30743;SDS011;17486;46.738;7.622;2023-03-05T03:12:14;45.63;;;27.50;;
30743;SDS011;17486;46.738;7.622;2023-03-05T03:14:40;44.60;;;27.10;;
30743;SDS011;17486;46.738;7.622;2023-03-05T03:17:07;44.15;;;26.27;;
30743;SDS011;17486;46.738;7.622;2023-03-05T03:19:35;44.05;;;26.83;;
30743;SDS011;17486;46.738;7.622;2023-03-05T03:22:01;47.03;;;26.85;;
30743;SDS011;17486;46.738;7.622;2023-03-05T03:24:28;50.17;;;27.02;;
30743;SDS011;17486;46.738;7.622;2023-03-05T03:26:55;47.78;;;27.15;;
30743;SDS011;17486;46.738;7.622;2023-03-05T03:29:21;50.40;;;29.17;;
30743;SDS011;17486;46.738;7.622;2023-03-05T03:31:47;53.60;;;29.98;;
30743;SDS011;17486;46.738;7.622;2023-03-05T03:34:13;52.92;;;31.10;;
30743;SDS011;17486;46.738;7.622;2023-03-05T03:36:41;53.97;;;30.50;;
30743;SDS011;17486;46.738;7.622;2023-03-05T03:39:07;53.92;;;29.45;;
30743;SDS011;17486;46.738;7.622;2023-03-05T03:41:36;56.13;;;30.85;;
30743;SDS011;17486;46.738;7.622;2023-03-05T03:44:05;56.33;;;32.50;;
30743;SDS011;17486;46.738;7.622;2023-03-05T03:46:33;55.15;;;31.30;;
30743;SDS011;17486;46.738;7.622;2023-03-05T03:48:59;56.63;;;32.13;;
30743;SDS011;17486;46.738;7.622;2023-03-05T03:51:24;62.25;;;32.33;;
30743;SDS011;17486;46.738;7.622;2023-03-05T03:53:50;54.85;;;31.63;;
30743;SDS011;17486;46.738;7.622;2023-03-05T03:56:15;55.85;;;30.45;;
30743;SDS011;17486;46.738;7.622;2023-03-05T03:58:41;52.72;;;30.90;;
30743;SDS011;17486;46.738;7.622;2023-03-05T04:01:06;58.13;;;32.25;;
30743;SDS011;17486;46.738;7.622;2023-03-05T04:03:32;62.05;;;34.17;;
30743;SDS011;17486;46.738;7.622;2023-03-05T04:05:57;56.78;;;32.85;;
30743;SDS011;17486;46.738;7.622;2023-03-05T04:08:23;57.80;;;32.33;;
30743;SDS011;17486;46.738;7.622;2023-03-05T04:10:48;63.33;;;35.08;;
30743;SDS011;17486;46.738;7.622;2023-03-05T04:13:14;56.83;;;32.78;;
30743;SDS011;17486;46.738;7.622;2023-03-05T04:15:39;58.08;;;32.03;;
30743;SDS011;17486;46.738;7.622;2023-03-05T04:18:05;64.47;;;34.35;;
30743;SDS011;17486;46.738;7.622;2023-03-05T04:20:30;63.15;;;33.83;;
30743;SDS011;17486;46.738;7.622;2023-03-05T04:22:55;56.75;;;31.92;;
30743;SDS011;17486;46.738;7.622;2023-03-05T04:25:21;61.53;;;34.65;;
30743;SDS011;17486;46.738;7.622;2023-03-05T04:27:46;57.17;;;32.42;;
30743;SDS011;17486;46.738;7.622;2023-03-05T04:30:12;59.83;;;33.03;;
30743;SDS011;17486;46.738;7.622;2023-03-05T04:32:41;65.07;;;34.13;;
30743;SDS011;17486;46.738;7.622;2023-03-05T04:35:07;59.88;;;32.47;;
30743;SDS011;17486;46.738;7.622;2023-03-05T04:37:33;58.42;;;32.97;;
30743;SDS011;17486;46.738;7.622;2023-03-05T04:39:58;60.33;;;33.33;;
30743;SDS011;17486;46.738;7.622;2023-03-05T04:42:24;56.92;;;32.95;;
30743;SDS011;17486;46.738;7.622;2023-03-05T04:44:49;59.25;;;32.83;;
30743;SDS011;17486;46.738;7.622;2023-03-05T04:47:15;61.67;;;33.65;;
30743;SDS011;17486;46.738;7.622;2023-03-05T04:49:42;56.05;;;31.73;;
30743;SDS011;17486;46.738;7.622;2023-03-05T04:52:09;59.17;;;32.53;;
30743;SDS011;17486;46.738;7.622;2023-03-05T04:54:36;58.65;;;33.00;;
30743;SDS011;17486;46.738;7.622;2023-03-05T04:57:01;58.58;;;32.05;;
30743;SDS011;17486;46.738;7.622;2023-03-05T04:59:26;57.20;;;31.92;;
30743;SDS011;17486;46.738;7.622;2023-03-05T05:01:52;60.75;;;32.55;;
30743;SDS011;17486;46.738;7.622;2023-03-05T05:04:17;61.55;;;33.70;;
30743;SDS011;17486;46.738;7.622;2023-03-05T05:06:43;58.55;;;32.72;;
30743;SDS011;17486;46.738;7.622;2023-03-05T05:09:08;59.00;;;33.10;;
30743;SDS011;17486;46.738;7.622;2023-03-05T05:11:34;60.05;;;32.63;;
30743;SDS011;17486;46.738;7.622;2023-03-05T05:13:59;62.10;;;33.55;;
30743;SDS011;17486;46.738;7.622;2023-03-05T05:16:24;58.08;;;32.70;;
30743;SDS011;17486;46.738;7.622;2023-03-05T05:18:50;58.10;;;30.92;;
30743;SDS011;17486;46.738;7.622;2023-03-05T05:21:15;57.58;;;32.80;;
30743;SDS011;17486;46.738;7.622;2023-03-05T05:23:42;60.72;;;31.73;;
30743;SDS011;17486;46.738;7.622;2023-03-05T05:26:09;58.13;;;30.83;;
30743;SDS011;17486;46.738;7.622;2023-03-05T05:28:38;59.67;;;31.77;;
30743;SDS011;17486;46.738;7.622;2023-03-05T05:31:09;64.45;;;33.05;;
30743;SDS011;17486;46.738;7.622;2023-03-05T05:33:36;63.38;;;32.97;;
30743;SDS011;17486;46.738;7.622;2023-03-05T05:36:03;60.95;;;33.38;;
30743;SDS011;17486;46.738;7.622;2023-03-05T05:38:29;63.38;;;33.78;;
30743;SDS011;17486;46.738;7.622;2023-03-05T05:41:00;59.63;;;33.13;;
30743;SDS011;17486;46.738;7.622;2023-03-05T05:43:27;61.20;;;32.08;;
30743;SDS011;17486;46.738;7.622;2023-03-05T05:45:53;55.53;;;31.52;;
30743;SDS011;17486;46.738;7.622;2023-03-05T05:48:18;63.63;;;33.15;;
30743;SDS011;17486;46.738;7.622;2023-03-05T05:50:43;61.58;;;32.65;;
30743;SDS011;17486;46.738;7.622;2023-03-05T05:53:09;64.72;;;32.88;;
30743;SDS011;17486;46.738;7.622;2023-03-05T05:55:34;62.03;;;33.60;;
30743;SDS011;17486;46.738;7.622;2023-03-05T05:58:00;63.60;;;33.58;;
30743;SDS011;17486;46.738;7.622;2023-03-05T06:00:25;63.33;;;33.80;;
30743;SDS011;17486;46.738;7.622;2023-03-05T06:02:51;60.60;;;33.80;;
30743;SDS011;17486;46.738;7.622;2023-03-05T06:05:16;60.17;;;33.75;;
30743;SDS011;17486;46.738;7.622;2023-03-05T06:07:42;61.15;;;33.53;;
30743;SDS011;17486;46.738;7.622;2023-03-05T06:10:08;63.63;;;33.83;;
30743;SDS011;17486;46.738;7.622;2023-03-05T06:12:34;63.88;;;35.60;;
30743;SDS011;17486;46.738;7.622;2023-03-05T06:15:00;64.20;;;35.10;;
30743;SDS011;17486;46.738;7.622;2023-03-05T06:17:26;61.80;;;33.72;;
30743;SDS011;17486;46.738;7.622;2023-03-05T06:19:53;67.82;;;34.58;;
30743;SDS011;17486;46.738;7.622;2023-03-05T06:22:19;62.88;;;32.85;;
30743;SDS011;17486;46.738;7.622;2023-03-05T06:24:44;59.15;;;32.88;;
30743;SDS011;17486;46.738;7.622;2023-03-05T06:27:10;64.57;;;34.33;;
30743;SDS011;17486;46.738;7.622;2023-03-05T06:29:35;63.08;;;34.78;;
30743;SDS011;17486;46.738;7.622;2023-03-05T06:32:01;63.30;;;33.10;;
30743;SDS011;17486;46.738;7.622;2023-03-05T06:34:26;66.97;;;34.78;;
30743;SDS011;17486;46.738;7.622;2023-03-05T06:36:51;64.93;;;34.88;;
30743;SDS011;17486;46.738;7.622;2023-03-05T06:39:17;61.17;;;34.25;;
30743;SDS011;17486;46.738;7.622;2023-03-05T06:41:42;57.30;;;33.33;;
30743;SDS011;17486;46.738;7.622;2023-03-05T06:44:08;57.45;;;32.45;;
30743;SDS011;17486;46.738;7.622;2023-03-05T06:46:35;56.92;;;32.60;;
30743;SDS011;17486;46.738;7.622;2023-03-05T06:49:03;62.80;;;34.95;;
30743;SDS011;17486;46.738;7.622;2023-03-05T06:51:35;64.25;;;34.00;;
30743;SDS011;17486;46.738;7.622;2023-03-05T06:54:03;60.03;;;32.30;;
30743;SDS011;17486;46.738;7.622;2023-03-05T06:56:31;57.70;;;31.80;;
30743;SDS011;17486;46.738;7.622;2023-03-05T06:58:59;60.25;;;32.80;;
30743;SDS011;17486;46.738;7.622;2023-03-05T07:01:24;52.47;;;31.60;;
30743;SDS011;17486;46.738;7.622;2023-03-05T07:03:50;52.05;;;31.17;;
30743;SDS011;17486;46.738;7.622;2023-03-05T07:06:18;59.25;;;33.20;;
30743;SDS011;17486;46.738;7.622;2023-03-05T07:08:45;59.42;;;33.72;;
30743;SDS011;17486;46.738;7.622;2023-03-05T07:11:11;57.22;;;32.33;;
30743;SDS011;17486;46.738;7.622;2023-03-05T07:13:39;57.80;;;32.08;;
30743;SDS011;17486;46.738;7.622;2023-03-05T07:16:05;62.40;;;34.88;;
30743;SDS011;17486;46.738;7.622;2023-03-05T07:18:36;60.65;;;33.67;;
30743;SDS011;17486;46.738;7.622;2023-03-05T07:21:05;60.70;;;34.25;;
30743;SDS011;17486;46.738;7.622;2023-03-05T07:23:32;68.13;;;35.05;;
30743;SDS011;17486;46.738;7.622;2023-03-05T07:26:02;64.25;;;34.60;;
30743;SDS011;17486;46.738;7.622;2023-03-05T07:28:29;64.72;;;34.45;;
30743;SDS011;17486;46.738;7.622;2023-03-05T07:30:55;66.15;;;37.17;;
30743;SDS011;17486;46.738;7.622;2023-03-05T07:33:29;68.30;;;35.40;;
30743;SDS011;17486;46.738;7.622;2023-03-05T07:35:55;69.28;;;35.22;;
30743;SDS011;17486;46.738;7.622;2023-03-05T07:38:21;64.82;;;36.60;;
30743;SDS011;17486;46.738;7.622;2023-03-05T07:40:47;68.97;;;36.47;;
30743;SDS011;17486;46.738;7.622;2023-03-05T07:43:12;63.60;;;36.72;;
30743;SDS011;17486;46.738;7.622;2023-03-05T07:45:39;69.68;;;35.35;;
30743;SDS011;17486;46.738;7.622;2023-03-05T07:48:06;155.43;;;101.65;;
30743;SDS011;17486;46.738;7.622;2023-03-05T07:50:32;292.20;;;179.27;;
30743;SDS011;17486;46.738;7.622;2023-03-05T07:52:58;245.50;;;145.55;;
30743;SDS011;17486;46.738;7.622;2023-03-05T07:55:23;149.77;;;87.90;;
30743;SDS011;17486;46.738;7.622;2023-03-05T07:57:49;100.88;;;56.58;;
30743;SDS011;17486;46.738;7.622;2023-03-05T08:00:14;82.13;;;44.85;;
30743;SDS011;17486;46.738;7.622;2023-03-05T08:02:40;76.03;;;41.13;;
30743;SDS011;17486;46.738;7.622;2023-03-05T08:05:05;71.18;;;39.83;;
30743;SDS011;17486;46.738;7.622;2023-03-05T08:07:31;73.28;;;40.40;;
30743;SDS011;17486;46.738;7.622;2023-03-05T08:09:57;76.47;;;42.22;;
30743;SDS011;17486;46.738;7.622;2023-03-05T08:12:22;77.82;;;42.42;;
30743;SDS011;17486;46.738;7.622;2023-03-05T08:14:47;77.85;;;43.28;;
30743;SDS011;17486;46.738;7.622;2023-03-05T08:17:13;76.50;;;42.85;;
30743;SDS011;17486;46.738;7.622;2023-03-05T08:19:38;261.00;;;144.95;;
30743;SDS011;17486;46.738;7.622;2023-03-05T08:22:04;555.25;;;319.02;;
30743;SDS011;17486;46.738;7.622;2023-03-05T08:24:29;403.38;;;219.85;;
30743;SDS011;17486;46.738;7.622;2023-03-05T08:26:55;212.38;;;109.38;;
30743;SDS011;17486;46.738;7.622;2023-03-05T08:29:21;124.45;;;65.40;;
30743;SDS011;17486;46.738;7.622;2023-03-05T08:31:47;87.15;;;48.65;;
30743;SDS011;17486;46.738;7.622;2023-03-05T08:34:14;84.07;;;45.80;;
30743;SDS011;17486;46.738;7.622;2023-03-05T08:36:39;77.13;;;42.90;;
30743;SDS011;17486;46.738;7.622;2023-03-05T08:39:05;78.57;;;43.50;;
30743;SDS011;17486;46.738;7.622;2023-03-05T08:41:32;76.13;;;41.85;;
30743;SDS011;17486;46.738;7.622;2023-03-05T08:43:58;73.00;;;41.78;;
30743;SDS011;17486;46.738;7.622;2023-03-05T08:46:23;78.45;;;42.90;;
30743;SDS011;17486;46.738;7.622;2023-03-05T08:48:49;76.07;;;42.65;;
30743;SDS011;17486;46.738;7.622;2023-03-05T08:51:16;71.13;;;41.83;;
30743;SDS011;17486;46.738;7.622;2023-03-05T08:53:44;69.05;;;41.05;;
30743;SDS011;17486;46.738;7.622;2023-03-05T08:56:11;71.00;;;41.03;;
30743;SDS011;17486;46.738;7.622;2023-03-05T08:58:36;68.40;;;39.58;;
30743;SDS011;17486;46.738;7.622;2023-03-05T09:01:02;75.32;;;42.72;;
30743;SDS011;17486;46.738;7.622;2023-03-05T09:03:29;68.95;;;39.42;;
30743;SDS011;17486;46.738;7.622;2023-03-05T09:05:57;70.72;;;41.17;;
30743;SDS011;17486;46.738;7.622;2023-03-05T09:08:24;73.53;;;41.25;;
30743;SDS011;17486;46.738;7.622;2023-03-05T09:10:50;70.40;;;41.17;;
30743;SDS011;17486;46.738;7.622;2023-03-05T09:13:15;68.45;;;39.53;;
30743;SDS011;17486;46.738;7.622;2023-03-05T09:15:40;63.97;;;37.78;;
30743;SDS011;17486;46.738;7.622;2023-03-05T09:18:06;66.38;;;38.30;;
30743;SDS011;17486;46.738;7.622;2023-03-05T09:20:33;67.75;;;38.08;;
30743;SDS011;17486;46.738;7.622;2023-03-05T09:23:00;70.07;;;41.25;;
30743;SDS011;17486;46.738;7.622;2023-03-05T09:25:25;65.93;;;39.25;;
30743;SDS011;17486;46.738;7.622;2023-03-05T09:27:51;66.80;;;39.67;;
30743;SDS011;17486;46.738;7.622;2023-03-05T09:30:16;67.78;;;40.03;;
30743;SDS011;17486;46.738;7.622;2023-03-05T09:32:42;65.70;;;38.35;;
30743;SDS011;17486;46.738;7.622;2023-03-05T09:35:08;66.28;;;38.80;;
30743;SDS011;17486;46.738;7.622;2023-03-05T09:37:34;62.33;;;36.78;;
30743;SDS011;17486;46.738;7.622;2023-03-05T09:39:59;60.70;;;37.92;;
30743;SDS011;17486;46.738;7.622;2023-03-05T09:42:40;62.90;;;38.35;;
30743;SDS011;17486;46.738;7.622;2023-03-05T09:50:50;61.17;;;37.70;;
30743;SDS011;17486;46.738;7.622;2023-03-05T09:56:16;58.67;;;37.10;;
30743;SDS011;17486;46.738;7.622;2023-03-05T09:58:47;58.33;;;36.85;;
30743;SDS011;17486;46.738;7.622;2023-03-05T10:01:17;63.30;;;36.58;;
30743;SDS011;17486;46.738;7.622;2023-03-05T10:03:54;59.35;;;36.40;;
30743;SDS011;17486;46.738;7.622;2023-03-05T10:09:06;58.88;;;37.20;;
30743;SDS011;17486;46.738;7.622;2023-03-05T10:14:34;64.15;;;37.13;;
30743;SDS011;17486;46.738;7.622;2023-03-05T10:25:25;57.88;;;35.67;;
30743;SDS011;17486;46.738;7.622;2023-03-05T10:28:15;54.95;;;36.00;;
30743;SDS011;17486;46.738;7.622;2023-03-05T10:34:16;56.05;;;36.10;;
30743;SDS011;17486;46.738;7.622;2023-03-05T10:42:31;52.72;;;34.72;;
30743;SDS011;17486;46.738;7.622;2023-03-05T10:45:11;54.03;;;35.30;;
30743;SDS011;17486;46.738;7.622;2023-03-05T10:47:46;56.60;;;35.70;;
30743;SDS011;17486;46.738;7.622;2023-03-05T10:50:20;55.97;;;34.83;;
30743;SDS011;17486;46.738;7.622;2023-03-05T10:55:34;53.17;;;32.50;;
30743;SDS011;17486;46.738;7.622;2023-03-05T10:58:00;49.83;;;32.65;;
30743;SDS011;17486;46.738;7.622;2023-03-05T11:00:34;48.08;;;31.67;;
30743;SDS011;17486;46.738;7.622;2023-03-05T11:03:04;51.80;;;33.25;;
30743;SDS011;17486;46.738;7.622;2023-03-05T11:08:26;55.40;;;35.33;;
30743;SDS011;17486;46.738;7.622;2023-03-05T11:13:26;55.42;;;35.78;;
30743;SDS011;17486;46.738;7.622;2023-03-05T11:16:03;55.65;;;36.92;;
30743;SDS011;17486;46.738;7.622;2023-03-05T11:18:31;55.90;;;36.58;;
30743;SDS011;17486;46.738;7.622;2023-03-05T11:21:21;55.15;;;36.13;;
30743;SDS011;17486;46.738;7.622;2023-03-05T11:26:44;52.88;;;34.67;;
30743;SDS011;17486;46.738;7.622;2023-03-05T11:29:21;53.92;;;35.83;;
30743;SDS011;17486;46.738;7.622;2023-03-05T11:31:49;52.63;;;35.85;;
30743;SDS011;17486;46.738;7.622;2023-03-05T11:37:05;52.13;;;35.60;;
30743;SDS011;17486;46.738;7.622;2023-03-05T11:39:31;50.55;;;34.50;;
30743;SDS011;17486;46.738;7.622;2023-03-05T11:42:06;52.10;;;36.33;;
30743;SDS011;17486;46.738;7.622;2023-03-05T11:44:48;52.05;;;35.22;;
30743;SDS011;17486;46.738;7.622;2023-03-05T11:50:23;52.90;;;35.72;;
30743;SDS011;17486;46.738;7.622;2023-03-05T11:53:02;51.33;;;34.90;;
30743;SDS011;17486;46.738;7.622;2023-03-05T11:55:35;53.20;;;35.13;;
30743;SDS011;17486;46.738;7.622;2023-03-05T12:00:49;51.35;;;35.20;;
30743;SDS011;17486;46.738;7.622;2023-03-05T12:03:18;49.58;;;35.42;;
30743;SDS011;17486;46.738;7.622;2023-03-05T12:05:47;49.38;;;34.17;;
30743;SDS011;17486;46.738;7.622;2023-03-05T12:08:28;48.38;;;33.97;;
30743;SDS011;17486;46.738;7.622;2023-03-05T12:11:00;47.60;;;33.10;;
30743;SDS011;17486;46.738;7.622;2023-03-05T12:18:32;47.33;;;34.13;;
30743;SDS011;17486;46.738;7.622;2023-03-05T12:23:57;49.92;;;33.88;;
30743;SDS011;17486;46.738;7.622;2023-03-05T12:31:57;50.28;;;34.67;;
30743;SDS011;17486;46.738;7.622;2023-03-05T12:37:02;48.50;;;34.83;;
30743;SDS011;17486;46.738;7.622;2023-03-05T12:47:37;52.08;;;35.47;;
30743;SDS011;17486;46.738;7.622;2023-03-05T12:50:03;46.08;;;33.30;;
30743;SDS011;17486;46.738;7.622;2023-03-05T12:52:31;48.20;;;35.75;;
30743;SDS011;17486;46.738;7.622;2023-03-05T12:55:19;51.42;;;35.75;;
30743;SDS011;17486;46.738;7.622;2023-03-05T12:57:48;49.67;;;34.60;;
30743;SDS011;17486;46.738;7.622;2023-03-05T13:01:05;51.45;;;34.92;;
30743;SDS011;17486;46.738;7.622;2023-03-05T13:03:21;47.25;;;33.70;;
30743;SDS011;17486;46.738;7.622;2023-03-05T13:05:51;45.70;;;33.28;;
30743;SDS011;17486;46.738;7.622;2023-03-05T13:08:23;46.15;;;32.92;;
30743;SDS011;17486;46.738;7.622;2023-03-05T13:11:03;54.33;;;35.58;;
30743;SDS011;17486;46.738;7.622;2023-03-05T13:13:37;46.78;;;34.03;;
30743;SDS011;17486;46.738;7.622;2023-03-05T13:16:17;48.53;;;34.40;;
30743;SDS011;17486;46.738;7.622;2023-03-05T13:18:53;54.25;;;35.63;;
30743;SDS011;17486;46.738;7.622;2023-03-05T13:21:24;47.78;;;34.53;;
30743;SDS011;17486;46.738;7.622;2023-03-05T13:23:55;50.05;;;33.88;;
30743;SDS011;17486;46.738;7.622;2023-03-05T13:26:27;46.13;;;34.35;;
30743;SDS011;17486;46.738;7.622;2023-03-05T13:29:13;48.03;;;35.10;;
30743;SDS011;17486;46.738;7.622;2023-03-05T13:31:44;48.22;;;35.05;;
30743;SDS011;17486;46.738;7.622;2023-03-05T13:34:20;51.15;;;35.13;;
30743;SDS011;17486;46.738;7.622;2023-03-05T13:39:24;46.28;;;34.30;;
30743;SDS011;17486;46.738;7.622;2023-03-05T13:41:59;49.25;;;34.95;;
30743;SDS011;17486;46.738;7.622;2023-03-05T13:44:27;51.20;;;36.35;;
30743;SDS011;17486;46.738;7.622;2023-03-05T13:47:05;53.00;;;36.28;;
30743;SDS011;17486;46.738;7.622;2023-03-05T13:49:31;49.15;;;35.28;;
30743;SDS011;17486;46.738;7.622;2023-03-05T13:51:57;48.83;;;33.95;;
30743;SDS011;17486;46.738;7.622;2023-03-05T13:54:26;46.53;;;33.83;;
30743;SDS011;17486;46.738;7.622;2023-03-05T13:56:56;50.90;;;34.63;;
30743;SDS011;17486;46.738;7.622;2023-03-05T13:59:28;50.23;;;34.87;;
30743;SDS011;17486;46.738;7.622;2023-03-05T14:02:17;46.28;;;32.97;;
30743;SDS011;17486;46.738;7.622;2023-03-05T14:04:44;47.05;;;33.08;;
30743;SDS011;17486;46.738;7.622;2023-03-05T14:07:30;49.70;;;35.00;;
30743;SDS011;17486;46.738;7.622;2023-03-05T14:09:59;47.80;;;32.78;;
30743;SDS011;17486;46.738;7.622;2023-03-05T14:12:34;44.97;;;30.70;;
30743;SDS011;17486;46.738;7.622;2023-03-05T14:17:48;44.72;;;32.80;;
30743;SDS011;17486;46.738;7.622;2023-03-05T14:20:27;45.95;;;31.90;;
30743;SDS011;17486;46.738;7.622;2023-03-05T14:22:55;41.13;;;30.17;;
30743;SDS011;17486;46.738;7.622;2023-03-05T14:25:43;43.30;;;31.38;;
30743;SDS011;17486;46.738;7.622;2023-03-05T14:30:46;41.30;;;31.13;;
30743;SDS011;17486;46.738;7.622;2023-03-05T14:33:12;43.42;;;32.00;;
30743;SDS011;17486;46.738;7.622;2023-03-05T14:35:38;43.08;;;32.10;;
30743;SDS011;17486;46.738;7.622;2023-03-05T14:38:04;39.90;;;29.88;;
30743;SDS011;17486;46.738;7.622;2023-03-05T14:40:33;43.83;;;31.45;;
30743;SDS011;17486;46.738;7.622;2023-03-05T14:43:01;47.65;;;34.55;;
30743;SDS011;17486;46.738;7.622;2023-03-05T14:47:55;41.85;;;30.50;;
30743;SDS011;17486;46.738;7.622;2023-03-05T14:50:44;41.65;;;31.20;;
30743;SDS011;17486;46.738;7.622;2023-03-05T14:53:20;41.45;;;29.02;;
30743;SDS011;17486;46.738;7.622;2023-03-05T14:55:48;42.53;;;30.65;;
30743;SDS011;17486;46.738;7.622;2023-03-05T14:58:19;42.70;;;30.10;;
30743;SDS011;17486;46.738;7.622;2023-03-05T15:00:46;43.88;;;30.08;;
30743;SDS011;17486;46.738;7.622;2023-03-05T15:03:14;40.88;;;30.83;;
30743;SDS011;17486;46.738;7.622;2023-03-05T15:05:42;41.67;;;30.67;;
30743;SDS011;17486;46.738;7.622;2023-03-05T15:08:12;40.85;;;30.23;;
30743;SDS011;17486;46.738;7.622;2023-03-05T15:10:40;39.75;;;28.23;;
30743;SDS011;17486;46.738;7.622;2023-03-05T15:13:05;40.55;;;28.45;;
30743;SDS011;17486;46.738;7.622;2023-03-05T15:15:31;40.15;;;29.50;;
30743;SDS011;17486;46.738;7.622;2023-03-05T15:17:56;38.58;;;29.02;;
30743;SDS011;17486;46.738;7.622;2023-03-05T15:20:23;39.72;;;30.23;;
30743;SDS011;17486;46.738;7.622;2023-03-05T15:22:50;41.55;;;29.38;;
30743;SDS011;17486;46.738;7.622;2023-03-05T15:25:17;40.40;;;29.02;;
30743;SDS011;17486;46.738;7.622;2023-03-05T15:27:43;42.47;;;29.90;;
30743;SDS011;17486;46.738;7.622;2023-03-05T15:30:29;41.85;;;29.27;;
30743;SDS011;17486;46.738;7.622;2023-03-05T15:32:56;41.80;;;29.30;;
30743;SDS011;17486;46.738;7.622;2023-03-05T15:35:24;40.28;;;29.85;;
30743;SDS011;17486;46.738;7.622;2023-03-05T15:37:50;40.40;;;26.38;;
30743;SDS011;17486;46.738;7.622;2023-03-05T15:40:18;36.08;;;27.38;;
30743;SDS011;17486;46.738;7.622;2023-03-05T15:42:45;40.50;;;28.38;;
30743;SDS011;17486;46.738;7.622;2023-03-05T15:45:11;41.03;;;27.38;;
30743;SDS011;17486;46.738;7.622;2023-03-05T15:47:37;39.25;;;28.92;;
30743;SDS011;17486;46.738;7.622;2023-03-05T15:50:03;41.47;;;28.67;;
30743;SDS011;17486;46.738;7.622;2023-03-05T15:52:29;41.28;;;29.92;;
30743;SDS011;17486;46.738;7.622;2023-03-05T15:54:54;62.75;;;48.03;;